createdAt,value
2022-11-12T00:02:43.852Z,12.35
2022-11-12T00:05:31.474Z,12.05
2022-11-12T00:08:20.049Z,12.00
2022-11-12T00:11:07.856Z,11.93
2022-11-12T00:13:54.947Z,12.70
2022-11-12T00:16:43.425Z,12.52
2022-11-12T00:19:30.902Z,13.35
2022-11-12T00:22:18.941Z,12.68
2022-11-12T00:25:09.400Z,13.18
2022-11-12T00:28:03.284Z,13.65
2022-11-12T00:30:50.548Z,14.38
2022-11-12T00:33:42.652Z,13.50
2022-11-12T00:36:29.836Z,14.27
2022-11-12T00:39:17.822Z,11.65
2022-11-12T00:42:05.516Z,13.05
2022-11-12T00:44:52.673Z,12.38
2022-11-12T00:47:39.972Z,16.65
2022-11-12T00:50:28.794Z,17.15
2022-11-12T00:53:16.775Z,16.80
2022-11-12T00:56:06.595Z,20.45
2022-11-12T00:58:54.047Z,19.35
2022-11-12T01:01:42.029Z,19.92
2022-11-12T01:04:32.211Z,18.88
2022-11-12T01:07:20.887Z,22.33
2022-11-12T01:10:09.203Z,30.05
2022-11-12T01:12:56.896Z,29.77
2022-11-12T01:15:44.399Z,29.33
2022-11-12T01:18:31.783Z,25.73
2022-11-12T01:21:19.909Z,27.67
2022-11-12T01:24:09.776Z,31.80
2022-11-12T01:26:56.918Z,25.95
2022-11-12T01:29:44.010Z,24.30
2022-11-12T01:32:35.035Z,25.05
2022-11-12T01:35:22.840Z,21.80
2022-11-12T01:38:10.771Z,20.65
2022-11-12T01:41:00.169Z,23.67
2022-11-12T01:43:47.825Z,22.55
2022-11-12T01:46:38.405Z,22.00
2022-11-12T01:49:29.781Z,26.23
2022-11-12T01:52:22.145Z,25.55
2022-11-12T01:55:14.735Z,28.25
2022-11-12T01:58:10.502Z,28.38
2022-11-12T02:00:59.120Z,26.67
2022-11-12T02:03:46.776Z,31.05
2022-11-12T02:06:36.723Z,29.95
2022-11-12T02:09:24.120Z,30.30
2022-11-12T02:12:32.131Z,35.30
2022-11-12T02:15:21.470Z,30.70
2022-11-12T02:18:11.150Z,37.20
2022-11-12T02:21:04.421Z,36.58
2022-11-12T02:24:01.105Z,40.08
2022-11-12T02:26:51.270Z,31.52
2022-11-12T02:29:46.376Z,28.98
2022-11-12T02:32:36.746Z,26.10
2022-11-12T02:35:23.949Z,30.55
2022-11-12T02:38:12.398Z,26.85
2022-11-12T02:41:01.188Z,29.42
2022-11-12T02:43:48.547Z,31.90
2022-11-12T02:46:38.367Z,35.70
2022-11-12T02:49:25.566Z,35.38
2022-11-12T02:52:12.909Z,35.53
2022-11-12T02:55:00.252Z,36.28
2022-11-12T02:57:48.734Z,37.25
2022-11-12T03:00:40.301Z,41.63
2022-11-12T03:03:29.534Z,40.42
2022-11-12T03:06:17.191Z,42.72
2022-11-12T03:09:04.994Z,40.25
2022-11-12T03:11:54.571Z,44.63
2022-11-12T03:14:43.128Z,43.90
2022-11-12T03:17:29.984Z,38.05
2022-11-12T03:20:18.320Z,43.65
2022-11-12T03:23:09.632Z,40.13
2022-11-12T03:25:56.799Z,39.28
2022-11-12T03:28:43.704Z,32.72
2022-11-12T03:31:32.633Z,30.52
2022-11-12T03:34:19.869Z,37.00
2022-11-12T03:37:09.528Z,30.83
2022-11-12T03:39:56.662Z,30.75
2022-11-12T03:42:46.766Z,32.10
2022-11-12T03:45:34.110Z,29.83
2022-11-12T03:48:23.921Z,30.65
2022-11-12T03:51:12.315Z,29.40
2022-11-12T03:53:59.400Z,32.78
2022-11-12T03:56:49.284Z,32.20
2022-11-12T03:59:36.577Z,29.02
2022-11-12T04:02:26.541Z,30.08
2022-11-12T04:05:34.085Z,34.75
2022-11-12T04:08:39.361Z,35.67
2022-11-12T04:11:26.734Z,32.95
2022-11-12T04:14:12.831Z,29.98
2022-11-12T04:17:18.106Z,36.20
2022-11-12T04:20:24.131Z,33.50
2022-11-12T04:23:13.179Z,29.60
2022-11-12T04:26:18.839Z,31.95
2022-11-12T04:29:24.353Z,29.10
2022-11-12T04:32:11.836Z,29.92
2022-11-12T04:34:59.424Z,31.77
2022-11-12T04:37:47.581Z,29.48
2022-11-12T04:40:53.511Z,27.92
2022-11-12T04:43:58.223Z,24.95
2022-11-12T04:46:45.805Z,23.00
2022-11-12T04:49:33.215Z,23.13
2022-11-12T04:52:20.643Z,26.00
2022-11-12T04:55:08.641Z,30.13
2022-11-12T04:58:00.582Z,27.65
2022-11-12T05:00:48.967Z,28.08
2022-11-12T05:03:38.169Z,23.77
2022-11-12T05:06:39.574Z,28.92
2022-11-12T05:09:29.063Z,22.98
2022-11-12T05:12:16.872Z,28.10
2022-11-12T05:15:07.794Z,23.88
2022-11-12T05:17:55.278Z,22.42
2022-11-12T05:20:42.472Z,21.88
2022-11-12T05:23:29.661Z,21.25
2022-11-12T05:26:16.880Z,22.58
2022-11-12T05:29:08.603Z,20.27
2022-11-12T05:31:58.312Z,21.33
2022-11-12T05:34:45.739Z,25.00
2022-11-12T05:37:33.134Z,18.45
2022-11-12T05:40:20.859Z,17.95
2022-11-12T05:43:17.521Z,20.80
2022-11-12T05:46:08.435Z,18.67
2022-11-12T05:49:11.188Z,18.02
2022-11-12T05:52:26.248Z,17.73
2022-11-12T05:55:34.370Z,20.60
2022-11-12T05:58:33.096Z,20.17
2022-11-12T06:01:39.249Z,17.30
2022-11-12T06:04:39.943Z,21.65
2022-11-12T06:07:30.091Z,17.35
2022-11-12T06:10:25.049Z,14.70
2022-11-12T06:13:38.335Z,14.35
2022-11-12T06:16:26.329Z,14.80
2022-11-12T06:19:13.917Z,14.27
2022-11-12T06:22:03.302Z,16.38
2022-11-12T06:24:50.386Z,14.13
2022-11-12T06:27:37.877Z,35.50
2022-11-12T06:30:29.966Z,21.48
2022-11-12T06:33:52.486Z,13.77
2022-11-12T06:36:40.602Z,17.25
2022-11-12T06:39:29.936Z,14.82
2022-11-12T06:42:20.503Z,14.90
2022-11-12T06:45:09.385Z,13.80
2022-11-12T06:47:59.434Z,11.55
2022-11-12T06:50:47.418Z,12.07
2022-11-12T06:53:35.541Z,16.35
2022-11-12T06:56:25.564Z,15.30
2022-11-12T06:59:13.909Z,11.85
2022-11-12T07:02:02.763Z,12.77
2022-11-12T07:04:50.923Z,12.50
2022-11-12T07:07:38.518Z,13.23
2022-11-12T07:10:26.392Z,14.40
2022-11-12T07:13:16.406Z,12.95
2022-11-12T07:16:06.955Z,13.20
2022-11-12T07:18:54.670Z,12.85
2022-11-12T07:21:42.400Z,14.93
2022-11-12T07:24:30.106Z,13.40
2022-11-12T07:27:19.228Z,13.20
2022-11-12T07:30:09.760Z,15.02
2022-11-12T07:32:59.319Z,14.32
2022-11-12T07:35:47.219Z,14.30
2022-11-12T07:38:36.816Z,14.40
2022-11-12T07:41:26.553Z,15.55
2022-11-12T07:44:14.498Z,15.52
2022-11-12T07:47:03.232Z,16.45
2022-11-12T07:49:50.815Z,16.60
2022-11-12T07:52:38.476Z,17.52
2022-11-12T07:55:26.084Z,19.10
2022-11-12T07:58:13.933Z,16.83
2022-11-12T08:01:09.394Z,17.50
2022-11-12T08:04:02.639Z,18.77
2022-11-12T08:06:51.067Z,16.92
2022-11-12T08:09:41.592Z,17.52
2022-11-12T08:12:57.654Z,16.90
2022-11-12T08:15:50.988Z,16.92
2022-11-12T08:18:39.946Z,18.38
2022-11-12T08:21:29.307Z,17.77
2022-11-12T08:24:16.950Z,18.50
2022-11-12T08:27:04.987Z,18.73
2022-11-12T08:29:52.385Z,18.10
2022-11-12T08:32:42.556Z,18.98
2022-11-12T08:35:34.695Z,19.40
2022-11-12T08:38:28.865Z,19.50
2022-11-12T08:41:17.744Z,20.20
2022-11-12T08:44:08.539Z,19.83
2022-11-12T08:46:57.017Z,20.02
2022-11-12T08:49:47.967Z,22.35
2022-11-12T08:52:36.201Z,21.20
2022-11-12T08:55:26.302Z,21.42
2022-11-12T08:58:15.745Z,20.88
2022-11-12T09:01:06.163Z,22.27
2022-11-12T09:03:53.923Z,21.60
2022-11-12T09:06:41.960Z,24.02
2022-11-12T09:09:29.147Z,22.83
2022-11-12T09:12:19.892Z,23.00
2022-11-12T09:15:39.405Z,24.00
2022-11-12T09:18:27.107Z,23.48
2022-11-12T09:21:17.973Z,25.23
2022-11-12T09:24:11.477Z,23.50
2022-11-12T09:27:04.178Z,21.67
2022-11-12T09:30:11.926Z,22.58
2022-11-12T09:33:09.164Z,21.63
2022-11-12T09:36:01.318Z,21.30
2022-11-12T09:38:48.887Z,20.48
2022-11-12T09:41:41.021Z,18.88
2022-11-12T09:44:36.615Z,18.80
2022-11-12T09:47:36.853Z,17.75
2022-11-12T09:50:28.183Z,17.85
2022-11-12T09:54:31.464Z,17.42
2022-11-12T09:57:24.524Z,17.60
2022-11-12T10:00:17.752Z,15.98
2022-11-12T10:03:11.973Z,16.73
2022-11-12T10:06:10.507Z,17.52
2022-11-12T10:09:05.012Z,15.27
2022-11-12T10:12:25.653Z,15.25
2022-11-12T10:15:50.694Z,14.88
2022-11-12T10:18:51.902Z,13.98
2022-11-12T10:21:47.723Z,13.23
2022-11-12T10:24:37.877Z,13.00
2022-11-12T10:27:29.370Z,12.77
2022-11-12T10:30:18.885Z,11.63
2022-11-12T10:33:06.252Z,12.93
2022-11-12T10:35:58.288Z,11.13
2022-11-12T10:38:49.092Z,12.48
2022-11-12T10:41:36.526Z,11.45
2022-11-12T10:44:27.832Z,11.02
2022-11-12T10:47:23.794Z,11.50
2022-11-12T10:50:19.719Z,10.15
2022-11-12T10:53:12.617Z,9.93
2022-11-12T10:56:02.109Z,10.03
2022-11-12T10:59:11.011Z,11.20
2022-11-12T11:01:59.980Z,9.88
2022-11-12T11:04:47.877Z,9.45
2022-11-12T11:07:36.045Z,10.32
2022-11-12T11:10:28.491Z,8.40
2022-11-12T11:13:22.111Z,9.90
2022-11-12T11:16:14.616Z,8.90
2022-11-12T11:19:06.678Z,10.33
2022-11-12T11:22:05.594Z,8.50
2022-11-12T11:25:02.608Z,8.20
2022-11-12T11:28:02.566Z,8.40
2022-11-12T11:30:57.267Z,8.65
2022-11-12T11:33:51.658Z,8.13
2022-11-12T11:36:45.880Z,8.43
2022-11-12T11:39:46.573Z,8.23
2022-11-12T11:42:50.660Z,7.70
2022-11-12T11:45:55.741Z,7.60
2022-11-12T11:48:59.852Z,9.02
2022-11-12T11:51:54.214Z,7.40
2022-11-12T11:55:07.789Z,7.20
2022-11-12T11:58:04.217Z,7.60
2022-11-12T12:01:01.439Z,8.05
2022-11-12T12:04:07.972Z,7.60
2022-11-12T12:07:10.174Z,7.88
2022-11-12T12:10:09.488Z,8.18
2022-11-12T12:13:06.567Z,7.28
2022-11-12T12:16:31.884Z,7.00
2022-11-12T12:19:34.326Z,8.02
2022-11-12T12:25:43.722Z,7.10
2022-11-12T12:28:39.079Z,7.65
2022-11-12T12:31:36.328Z,6.85
2022-11-12T12:34:30.808Z,6.43
2022-11-12T12:37:25.615Z,5.85
2022-11-12T12:40:19.254Z,5.60
2022-11-12T12:45:58.656Z,5.93
2022-11-12T12:48:48.703Z,6.20
2022-11-12T12:51:36.068Z,6.82
2022-11-12T12:55:00.151Z,6.40
2022-11-12T12:57:47.684Z,7.38
2022-11-12T13:00:39.583Z,5.90
2022-11-12T13:04:46.799Z,5.95
2022-11-12T13:07:45.354Z,5.53
2022-11-12T13:10:50.772Z,5.78
2022-11-12T13:13:40.341Z,5.28
2022-11-12T13:16:58.830Z,5.55
2022-11-12T13:20:08.142Z,6.20
2022-11-12T13:22:57.208Z,6.32
2022-11-12T13:25:45.304Z,4.85
2022-11-12T13:28:32.953Z,36.50
2022-11-12T13:31:30.431Z,12.75
2022-11-12T13:34:23.684Z,6.47
2022-11-12T13:37:21.241Z,6.38
2022-11-12T13:40:16.520Z,7.20
2022-11-12T13:43:14.328Z,7.80
2022-11-12T13:46:23.672Z,7.97
2022-11-12T13:49:15.102Z,7.70
2022-11-12T13:52:02.908Z,8.35
2022-11-12T13:55:03.495Z,7.07
2022-11-12T14:07:45.515Z,5.93
2022-11-12T14:10:45.876Z,5.28
2022-11-12T14:16:46.236Z,6.13
2022-11-12T14:20:01.106Z,5.28
2022-11-12T14:22:50.016Z,5.50
2022-11-12T14:25:48.625Z,5.38
2022-11-12T14:28:39.779Z,6.68
2022-11-12T14:31:27.808Z,6.47
2022-11-12T14:34:22.359Z,5.97
2022-11-12T14:37:37.300Z,6.03
2022-11-12T14:40:33.259Z,6.30
2022-11-12T14:43:28.328Z,6.18
2022-11-12T14:46:25.758Z,6.10
2022-11-12T14:49:23.049Z,6.18
2022-11-12T14:52:15.092Z,5.88
2022-11-12T14:55:11.726Z,6.25
2022-11-12T14:58:04.420Z,7.80
2022-11-12T15:00:53.235Z,6.40
2022-11-12T15:03:40.992Z,4.90
2022-11-12T15:06:31.422Z,78.55
2022-11-12T15:09:32.556Z,24.30
2022-11-12T15:12:34.336Z,6.43
2022-11-12T15:15:24.004Z,5.97
2022-11-12T15:18:19.232Z,7.30
2022-11-12T15:21:15.442Z,6.43
2022-11-12T15:24:09.257Z,7.18
2022-11-12T15:27:00.551Z,6.65
2022-11-12T15:29:50.282Z,8.27
2022-11-12T15:32:39.307Z,8.15
2022-11-12T15:35:39.413Z,7.60
2022-11-12T15:38:31.677Z,7.80
2022-11-12T15:41:24.664Z,8.80
2022-11-12T15:44:12.333Z,8.82
2022-11-12T15:47:01.488Z,9.57
2022-11-12T15:49:50.683Z,8.52
2022-11-12T15:52:37.972Z,8.73
2022-11-12T15:55:25.284Z,9.05
2022-11-12T15:58:18.495Z,9.18
2022-11-12T16:01:06.505Z,8.98
2022-11-12T16:03:55.127Z,9.95
2022-11-12T16:06:42.328Z,10.82
2022-11-12T16:09:29.378Z,10.40
2022-11-12T16:12:17.280Z,10.43
2022-11-12T16:15:05.207Z,10.48
2022-11-12T16:17:53.242Z,10.75
2022-11-12T16:20:41.869Z,12.15
2022-11-12T16:23:29.579Z,11.50
2022-11-12T16:26:25.200Z,11.27
2022-11-12T16:29:14.514Z,14.10
2022-11-12T16:32:02.715Z,11.65
2022-11-12T16:34:51.071Z,14.57
2022-11-12T16:37:40.441Z,13.10
2022-11-12T16:40:28.975Z,12.43
2022-11-12T16:43:16.098Z,11.07
2022-11-12T16:46:08.160Z,9.93
2022-11-12T16:48:56.194Z,10.35
2022-11-12T16:51:43.562Z,11.23
2022-11-12T16:54:32.158Z,10.93
2022-11-12T16:57:19.493Z,12.15
2022-11-12T17:00:08.901Z,11.85
2022-11-12T17:02:56.107Z,13.05
2022-11-12T17:05:43.364Z,12.25
2022-11-12T17:08:33.982Z,13.68
2022-11-12T17:11:23.311Z,12.88
2022-11-12T17:14:11.052Z,12.52
2022-11-12T17:16:58.078Z,13.23
2022-11-12T17:19:45.639Z,12.63
2022-11-12T17:22:32.765Z,14.40
2022-11-12T17:25:19.766Z,14.55
2022-11-12T17:28:08.434Z,14.18
2022-11-12T17:31:04.056Z,12.93
2022-11-12T17:33:54.620Z,12.73
2022-11-12T17:36:43.752Z,12.02
2022-11-12T17:39:31.185Z,12.68
2022-11-12T17:42:19.342Z,12.98
2022-11-12T17:45:09.038Z,12.82
2022-11-12T17:47:56.103Z,12.13
2022-11-12T17:50:43.492Z,13.07
2022-11-12T17:53:30.966Z,13.13
2022-11-12T17:56:20.718Z,13.90
2022-11-12T17:59:08.258Z,15.48
2022-11-12T18:01:57.016Z,16.63
2022-11-12T18:04:44.305Z,16.27
2022-11-12T18:07:31.735Z,17.15
2022-11-12T18:10:20.128Z,12.93
2022-11-12T18:13:07.331Z,12.10
2022-11-12T18:15:54.463Z,11.68
2022-11-12T18:18:42.803Z,13.30
2022-11-12T18:21:30.093Z,13.32
2022-11-12T18:24:17.882Z,15.82
2022-11-12T18:27:05.486Z,17.95
2022-11-12T18:29:52.653Z,16.58
2022-11-12T18:32:41.394Z,13.88
2022-11-12T18:35:30.671Z,15.30
2022-11-12T18:38:18.068Z,13.73
2022-11-12T18:41:07.038Z,14.95
2022-11-12T18:43:54.676Z,16.23
2022-11-12T18:46:41.728Z,17.40
2022-11-12T18:49:29.072Z,17.75
2022-11-12T18:52:17.731Z,21.90
2022-11-12T18:55:05.990Z,19.40
2022-11-12T18:57:53.291Z,19.23
2022-11-12T19:00:40.790Z,18.73
2022-11-12T19:03:28.118Z,19.08
2022-11-12T19:06:20.693Z,20.67
2022-11-12T19:09:12.333Z,21.08
2022-11-12T19:12:04.462Z,21.17
2022-11-12T19:14:53.241Z,21.75
2022-11-12T19:17:44.371Z,20.27
2022-11-12T19:20:32.716Z,20.25
2022-11-12T19:23:21.878Z,20.80
2022-11-12T19:26:13.932Z,20.65
2022-11-12T19:29:02.823Z,20.65
2022-11-12T19:31:51.220Z,19.98
2022-11-12T19:34:39.555Z,20.63
2022-11-12T19:37:33.412Z,19.67
2022-11-12T19:40:22.471Z,22.55
2022-11-12T19:43:12.822Z,22.20
2022-11-12T19:46:01.127Z,20.42
2022-11-12T19:48:48.852Z,19.98
2022-11-12T19:51:35.862Z,20.45
2022-11-12T19:54:25.537Z,17.45
2022-11-12T19:57:12.757Z,18.30
2022-11-12T20:00:01.730Z,17.88
2022-11-12T20:02:48.751Z,19.65
2022-11-12T20:05:35.880Z,18.08
2022-11-12T20:08:25.805Z,17.70
2022-11-12T20:11:16.216Z,20.90
2022-11-12T20:14:09.214Z,20.23
2022-11-12T20:16:59.278Z,19.55
2022-11-12T20:19:48.371Z,20.80
2022-11-12T20:22:37.154Z,22.95
2022-11-12T20:25:25.670Z,19.52
2022-11-12T20:28:14.941Z,19.98
2022-11-12T20:31:05.356Z,19.90
2022-11-12T20:33:58.062Z,20.27
2022-11-12T20:36:49.436Z,18.80
2022-11-12T20:39:38.416Z,19.33
2022-11-12T20:42:27.429Z,16.90
2022-11-12T20:45:16.340Z,19.50
2022-11-12T20:48:05.019Z,19.20
2022-11-12T20:51:22.806Z,19.77
2022-11-12T20:54:14.748Z,18.83
2022-11-12T20:57:04.606Z,19.13
2022-11-12T20:59:53.701Z,16.73
2022-11-12T21:02:41.220Z,18.55
2022-11-12T21:05:29.565Z,17.27
2022-11-12T21:08:19.050Z,16.38
2022-11-12T21:11:09.052Z,16.20
2022-11-12T21:13:57.603Z,15.90
2022-11-12T21:16:45.589Z,15.52
2022-11-12T21:19:34.162Z,17.90
2022-11-12T21:22:22.783Z,15.55
2022-11-12T21:25:14.953Z,15.68
2022-11-12T21:28:03.413Z,15.30
2022-11-12T21:30:52.772Z,16.67
2022-11-12T21:33:40.896Z,15.57
2022-11-12T21:36:30.350Z,15.82
2022-11-12T21:39:18.552Z,15.25
2022-11-12T21:42:09.299Z,14.40
2022-11-12T21:45:00.417Z,16.98
2022-11-12T21:47:49.005Z,16.73
2022-11-12T21:50:37.555Z,18.08
2022-11-12T21:53:26.490Z,16.98
2022-11-12T21:56:17.525Z,17.80
2022-11-12T21:59:08.033Z,17.30
2022-11-12T22:01:57.174Z,19.15
2022-11-12T22:04:45.785Z,18.23
2022-11-12T22:07:34.346Z,17.10
2022-11-12T22:10:22.583Z,18.00
2022-11-12T22:13:27.658Z,17.42
2022-11-12T22:16:19.673Z,15.73
2022-11-12T22:19:08.762Z,15.43
2022-11-12T22:21:59.934Z,14.90
2022-11-12T22:24:50.263Z,16.13
2022-11-12T22:27:38.802Z,16.38
2022-11-12T22:30:27.443Z,16.38
2022-11-12T22:33:17.578Z,14.88
2022-11-12T22:36:09.011Z,14.82
2022-11-12T22:38:57.714Z,16.17
2022-11-12T22:41:46.733Z,15.23
2022-11-12T22:44:38.173Z,16.85
2022-11-12T22:47:27.343Z,17.52
2022-11-12T22:50:17.806Z,15.25
2022-11-12T22:53:07.608Z,13.88
2022-11-12T22:55:57.295Z,13.75
2022-11-12T22:58:48.304Z,15.15
2022-11-12T23:01:38.029Z,13.65
2022-11-12T23:04:27.487Z,15.07
2022-11-12T23:07:19.339Z,13.63
2022-11-12T23:10:12.470Z,13.98
2022-11-12T23:13:02.033Z,14.13
2022-11-12T23:15:51.609Z,14.20
2022-11-12T23:18:40.611Z,17.27
2022-11-12T23:21:31.883Z,16.92
2022-11-12T23:24:22.079Z,16.13
2022-11-12T23:27:11.155Z,16.95
2022-11-12T23:30:00.545Z,18.98
2022-11-12T23:32:49.941Z,18.50
2022-11-12T23:35:38.954Z,15.77
2022-11-12T23:38:30.985Z,16.48
2022-11-12T23:41:26.439Z,15.65
2022-11-12T23:44:15.602Z,15.40
2022-11-12T23:47:04.867Z,13.35
2022-11-12T23:49:54.673Z,14.00
2022-11-12T23:52:43.961Z,14.13
2022-11-12T23:55:37.455Z,14.80
2022-11-12T23:58:32.539Z,13.60
